Flight Track Log - Related Links

Times and Time Zones

All times are in EDT time to prevent confusion due to time zone crossing. See the DAL110 flight status page for this flight to view local times or setup timezone preferences in your user account.

Time Position Orientation Groundspeed Altitude Reporting Facility
EDT Latitude Longitude Course Direction KTS MPH feet Rate Location/Type
Wed 07:37:00 PM -34.7089 -58.5823 339° North  Level FlightAware Approximate
Wed 07:38:00 PM -34.5943 -58.6357 339° North  Level FlightAware Approximate
Wed 07:39:00 PM -34.4797 -58.6889 339° North  Level FlightAware Approximate
Wed 07:40:00 PM -34.3650 -58.7419 339° North  Level FlightAware Approximate
Wed 07:41:00 PM -34.2503 -58.7948 339° North  Level FlightAware Approximate
Wed 07:42:00 PM -34.1356 -58.8476 339° North  Level FlightAware Approximate
Wed 07:43:00 PM -34.0201 -58.9006 339° North  Level FlightAware Approximate
Wed 07:44:00 PM -33.9046 -58.9534 339° North  Level FlightAware Approximate
Wed 07:45:00 PM -33.7891 -59.0061 339° North  Level FlightAware Approximate
Wed 07:46:00 PM -33.6735 -59.0587 339° North  Level FlightAware Approximate
Wed 07:47:00 PM -33.5580 -59.1111 339° North  Level FlightAware Approximate
Wed 07:48:00 PM -33.4424 -59.1633 339° North  Level FlightAware Approximate
Wed 07:49:00 PM -33.3267 -59.2155 339° North  Level FlightAware Approximate
Wed 07:50:00 PM -33.2086 -59.2689 339° North  Level FlightAware Approximate
Wed 07:51:00 PM -33.0932 -59.3214 339° North  Level FlightAware Approximate
Wed 07:52:00 PM -32.9777 -59.3738 339° North  Level FlightAware Approximate
Wed 07:53:00 PM -32.8622 -59.4261 339° North  Level FlightAware Approximate
Wed 07:54:00 PM -32.7467 -59.4782 339° North  Level FlightAware Approximate
Wed 07:55:00 PM -32.6311 -59.5303 339° North  Level FlightAware Approximate
Wed 07:56:00 PM -32.5156 -59.5821 339° North  Level FlightAware Approximate
Wed 07:57:00 PM -32.4000 -59.6339 339° North  Level FlightAware Approximate
Wed 07:58:00 PM -32.2844 -59.6855 339° North  Level FlightAware Approximate
Wed 07:59:00 PM -32.1688 -59.7369 339° North  Level FlightAware Approximate
Wed 08:00:00 PM -32.0531 -59.7883 339° North  Level FlightAware Approximate
Wed 08:01:00 PM -31.9375 -59.8395 339° North  Level FlightAware Approximate
Wed 08:02:00 PM -31.8218 -59.8906 339° North  Level FlightAware Approximate
Wed 08:03:00 PM -31.7061 -59.9415 339° North  Level FlightAware Approximate
Wed 08:04:00 PM -31.5904 -59.9924 339° North  Level FlightAware Approximate
Wed 08:05:00 PM -31.4746 -60.0430 340° North  Level FlightAware Approximate
Wed 08:06:00 PM -31.3589 -60.0936 340° North  Level FlightAware Approximate
Wed 08:07:00 PM -31.2431 -60.1441 340° North  Level FlightAware Approximate
Wed 08:08:00 PM -31.1273 -60.1944 340° North  Level FlightAware Approximate
Wed 08:09:00 PM -31.0111 -60.2448 340° North  Level FlightAware Approximate
Wed 08:10:00 PM -30.8949 -60.2950 340° North  Level FlightAware Approximate
Wed 08:11:00 PM -30.7786 -60.3452 340° North  Level FlightAware Approximate
Wed 08:12:00 PM -30.6623 -60.3952 340° North  Level FlightAware Approximate
Wed 08:13:00 PM -30.5460 -60.4451 340° North  Level FlightAware Approximate
Wed 08:14:00 PM -30.4297 -60.4948 340° North  Level FlightAware Approximate
Wed 08:15:00 PM -30.3134 -60.5445 340° North  Level FlightAware Approximate
Wed 08:16:00 PM -30.1971 -60.5940 340° North  Level FlightAware Approximate
Wed 08:17:00 PM -30.0807 -60.6434 340° North  Level FlightAware Approximate
Wed 08:18:00 PM -29.9643 -60.6927 340° North  Level FlightAware Approximate
Wed 08:19:00 PM -29.8479 -60.7419 340° North  Level FlightAware Approximate
Wed 08:20:00 PM -29.7315 -60.7910 340° North  Level FlightAware Approximate
Wed 08:21:00 PM -29.6150 -60.8400 340° North  Level FlightAware Approximate
Wed 08:22:00 PM -29.4986 -60.8888 340° North  Level FlightAware Approximate
Wed 08:23:00 PM -29.3821 -60.9375 340° North  Level FlightAware Approximate
Wed 08:24:00 PM -29.2656 -60.9861 340° North  Level FlightAware Approximate
Wed 08:25:00 PM -29.1491 -61.0347 340° North  Level FlightAware Approximate
Wed 08:26:00 PM -29.0326 -61.0831 340° North  Level FlightAware Approximate
Wed 08:27:00 PM -28.9160 -61.1314 340° North  Level FlightAware Approximate
Wed 08:28:00 PM -28.7995 -61.1795 340° North  Level FlightAware Approximate
Wed 08:29:00 PM -28.6829 -61.2276 340° North  Level FlightAware Approximate
Wed 08:30:00 PM -28.5663 -61.2756 340° North  Level FlightAware Approximate
Wed 08:31:00 PM -28.4497 -61.3234 340° North  Level FlightAware Approximate
Wed 08:32:00 PM -28.3331 -61.3712 340° North  Level FlightAware Approximate
Wed 08:33:00 PM -28.2164 -61.4188 340° North  Level FlightAware Approximate
Wed 08:34:00 PM -28.0998 -61.4664 340° North  Level FlightAware Approximate
Wed 08:35:00 PM -27.9831 -61.5138 340° North  Level FlightAware Approximate
Wed 08:36:00 PM -27.8664 -61.5612 340° North  Level FlightAware Approximate
Wed 08:37:00 PM -27.7497 -61.6084 340° North  Level FlightAware Approximate
Wed 08:38:00 PM -27.6329 -61.6555 340° North  Level FlightAware Approximate
Wed 08:39:00 PM -27.5162 -61.7026 340° North  Level FlightAware Approximate
Wed 08:40:00 PM -27.3995 -61.7495 340° North  Level FlightAware Approximate
Wed 08:41:00 PM -27.2827 -61.7964 340° North  Level FlightAware Approximate
Wed 08:42:00 PM -27.1659 -61.8431 340° North  Level FlightAware Approximate
Wed 08:43:00 PM -27.0491 -61.8898 340° North  Level FlightAware Approximate
Wed 08:44:00 PM -26.9323 -61.9363 340° North  Level FlightAware Approximate
Wed 08:45:00 PM -26.8154 -61.9827 340° North  Level FlightAware Approximate
Wed 08:46:00 PM -26.6986 -62.0291 340° North  Level FlightAware Approximate
Wed 08:47:00 PM -26.5817 -62.0754 341° North  Level FlightAware Approximate
Wed 08:48:00 PM -26.4648 -62.1215 341° North  Level FlightAware Approximate
Wed 08:49:00 PM -26.3479 -62.1676 341° North  Level FlightAware Approximate
Wed 08:50:00 PM -26.2310 -62.2136 341° North  Level FlightAware Approximate
Wed 08:51:00 PM -26.1141 -62.2595 341° North  Level FlightAware Approximate
Wed 08:52:00 PM -25.9972 -62.3052 341° North  Level FlightAware Approximate
Wed 08:53:00 PM -25.8802 -62.3509 341° North  Level FlightAware Approximate
Wed 08:54:00 PM -25.7632 -62.3966 341° North  Level FlightAware Approximate
Wed 08:55:00 PM -25.6463 -62.4421 341° North  Level FlightAware Approximate
Wed 08:56:00 PM -25.5293 -62.4875 341° North  Level FlightAware Approximate
Wed 08:57:00 PM -25.4123 -62.5329 341° North  Level FlightAware Approximate
Wed 08:58:00 PM -25.2952 -62.5781 341° North  Level FlightAware Approximate
Wed 08:59:00 PM -25.1782 -62.6233 341° North  Level FlightAware Approximate
Wed 09:00:00 PM -25.0611 -62.6684 341° North  Level FlightAware Approximate
Wed 09:01:00 PM -24.9441 -62.7134 341° North  Level FlightAware Approximate
Wed 09:02:00 PM -24.8270 -62.7583 341° North  Level FlightAware Approximate
Wed 09:03:00 PM -24.7099 -62.8031 341° North  Level FlightAware Approximate
Wed 09:04:00 PM -24.5928 -62.8479 341° North  Level FlightAware Approximate
Wed 09:05:00 PM -24.4757 -62.8925 341° North  Level FlightAware Approximate
Wed 09:06:00 PM -24.3585 -62.9371 341° North  Level FlightAware Approximate
Wed 09:07:00 PM -24.2414 -62.9816 341° North  Level FlightAware Approximate
Wed 09:08:00 PM -24.1242 -63.0260 341° North  Level FlightAware Approximate
Wed 09:09:00 PM -24.0071 -63.0703 341° North  Level FlightAware Approximate
Wed 09:10:00 PM -23.8899 -63.1146 341° North  Level FlightAware Approximate
Wed 09:11:00 PM -23.7727 -63.1587 341° North  Level FlightAware Approximate
Wed 09:12:00 PM -23.6555 -63.2028 341° North  Level FlightAware Approximate
Wed 09:13:00 PM -23.5383 -63.2468 341° North  Level FlightAware Approximate
Wed 09:14:00 PM -23.4210 -63.2908 341° North  Level FlightAware Approximate
Wed 09:15:00 PM -23.3038 -63.3346 341° North  Level FlightAware Approximate
Wed 09:16:00 PM -23.1865 -63.3784 341° North  Level FlightAware Approximate
Wed 09:17:00 PM -23.0693 -63.4221 341° North  Level FlightAware Approximate
Wed 09:18:00 PM -22.9520 -63.4657 341° North  Level FlightAware Approximate
Wed 09:19:00 PM -22.8347 -63.5093 341° North  Level FlightAware Approximate
Wed 09:20:00 PM -22.7174 -63.5528 341° North  Level FlightAware Approximate
Wed 09:21:00 PM -22.6000 -63.5962 341° North  Level FlightAware Approximate
Wed 09:22:00 PM -22.4827 -63.6395 341° North  Level FlightAware Approximate
Wed 09:23:00 PM -22.3654 -63.6827 341° North  Level FlightAware Approximate
Wed 09:24:00 PM -22.2480 -63.7259 341° North  Level FlightAware Approximate
Wed 09:25:00 PM -22.1307 -63.7690 341° North  Level FlightAware Approximate
Wed 09:26:00 PM -22.0133 -63.8121 341° North  Level FlightAware Approximate
Wed 09:27:00 PM -21.8959 -63.8550 341° North  Level FlightAware Approximate
Wed 09:28:00 PM -21.7785 -63.8979 341° North  Level FlightAware Approximate
Wed 09:29:00 PM -21.6611 -63.9407 341° North  Level FlightAware Approximate
Wed 09:30:00 PM -21.5437 -63.9835 341° North  Level FlightAware Approximate
Wed 09:31:00 PM -21.4263 -64.0262 341° North  Level FlightAware Approximate
Wed 09:32:00 PM -21.3088 -64.0688 341° North  Level FlightAware Approximate
Wed 09:33:00 PM -21.1914 -64.1113 341° North  Level FlightAware Approximate
Wed 09:34:00 PM -21.0739 -64.1538 341° North  Level FlightAware Approximate
Wed 09:35:00 PM -20.9564 -64.1962 341° North  Level FlightAware Approximate
Wed 09:36:00 PM -20.8388 -64.2386 341° North  Level FlightAware Approximate
Wed 09:37:00 PM -20.7211 -64.2810 341° North  Level FlightAware Approximate
Wed 09:38:00 PM -20.6034 -64.3233 341° North  Level FlightAware Approximate
Wed 09:39:00 PM -20.4856 -64.3655 341° North  Level FlightAware Approximate
Wed 09:40:00 PM -20.3679 -64.4077 341° North  Level FlightAware Approximate
Wed 09:41:00 PM -20.2502 -64.4498 341° North  Level FlightAware Approximate
Wed 09:42:00 PM -20.1325 -64.4918 341° North  Level FlightAware Approximate
Wed 09:43:00 PM -20.0147 -64.5338 341° North  Level FlightAware Approximate
Wed 09:44:00 PM -19.8969 -64.5757 342° North  Level FlightAware Approximate
Wed 09:45:00 PM -19.7792 -64.6175 342° North  Level FlightAware Approximate
Wed 09:46:00 PM -19.6614 -64.6593 342° North  Level FlightAware Approximate
Wed 09:47:00 PM -19.5436 -64.7010 342° North  Level FlightAware Approximate
Wed 09:48:00 PM -19.4258 -64.7427 342° North  Level FlightAware Approximate
Wed 09:49:00 PM -19.3080 -64.7843 342° North  Level FlightAware Approximate
Wed 09:50:00 PM -19.1902 -64.8258 342° North  Level FlightAware Approximate
Wed 09:51:00 PM -19.0723 -64.8673 342° North  Level FlightAware Approximate
Wed 09:52:00 PM -18.9545 -64.9087 342° North  Level FlightAware Approximate
Wed 09:53:00 PM -18.8367 -64.9501 342° North  Level FlightAware Approximate
Wed 09:54:00 PM -18.7188 -64.9914 342° North  Level FlightAware Approximate
Wed 09:55:00 PM -18.6009 -65.0326 342° North  Level FlightAware Approximate
Wed 09:56:00 PM -18.4830 -65.0738 342° North  Level FlightAware Approximate
Wed 09:57:00 PM -18.3652 -65.1149 342° North  Level FlightAware Approximate
Wed 09:58:00 PM -18.2473 -65.1560 342° North  Level FlightAware Approximate
Wed 09:59:00 PM -18.1294 -65.1970 342° North  Level FlightAware Approximate
Wed 10:00:00 PM -18.0115 -65.2380 342° North  Level FlightAware Approximate
Wed 10:01:00 PM -17.8936 -65.2789 342° North  Level FlightAware Approximate
Wed 10:02:00 PM -17.7756 -65.3197 342° North  Level FlightAware Approximate
Wed 10:03:00 PM -17.6577 -65.3605 342° North  Level FlightAware Approximate
Wed 10:04:00 PM -17.5397 -65.4013 342° North  Level FlightAware Approximate
Wed 10:05:00 PM -17.4218 -65.4420 342° North  Level FlightAware Approximate
Wed 10:06:00 PM -17.3038 -65.4826 342° North  Level FlightAware Approximate
Wed 10:07:00 PM -17.1859 -65.5232 342° North  Level FlightAware Approximate
Wed 10:08:00 PM -17.0679 -65.5637 342° North  Level FlightAware Approximate
Wed 10:09:00 PM -16.9499 -65.6042 342° North  Level FlightAware Approximate
Wed 10:10:00 PM -16.8319 -65.6447 342° North  Level FlightAware Approximate
Wed 10:11:00 PM -16.7139 -65.6850 342° North  Level FlightAware Approximate
Wed 10:12:00 PM -16.5959 -65.7254 342° North  Level FlightAware Approximate
Wed 10:13:00 PM -16.4779 -65.7657 342° North  Level FlightAware Approximate
Wed 10:14:00 PM -16.3598 -65.8059 342° North  Level FlightAware Approximate
Wed 10:15:00 PM -16.2418 -65.8461 342° North  Level FlightAware Approximate
Wed 10:16:00 PM -16.1238 -65.8862 342° North  Level FlightAware Approximate
Wed 10:17:00 PM -16.0057 -65.9263 342° North  Level FlightAware Approximate
Wed 10:18:00 PM -15.8877 -65.9664 342° North  Level FlightAware Approximate
Wed 10:19:00 PM -15.7696 -66.0064 342° North  Level FlightAware Approximate
Wed 10:20:00 PM -15.6516 -66.0463 342° North  Level FlightAware Approximate
Wed 10:21:00 PM -15.5335 -66.0862 342° North  Level FlightAware Approximate
Wed 10:22:00 PM -15.4154 -66.1261 342° North  Level FlightAware Approximate
Wed 10:23:00 PM -15.2973 -66.1659 342° North  Level FlightAware Approximate
Wed 10:24:00 PM -15.1792 -66.2057 342° North  Level FlightAware Approximate
Wed 10:25:00 PM -15.0611 -66.2454 342° North  Level FlightAware Approximate
Wed 10:26:00 PM -14.9430 -66.2850 342° North  Level FlightAware Approximate
Wed 10:27:00 PM -14.8249 -66.3247 342° North  Level FlightAware Approximate
Wed 10:28:00 PM -14.7067 -66.3643 342° North  Level FlightAware Approximate
Wed 10:29:00 PM -14.5886 -66.4038 342° North  Level FlightAware Approximate
Wed 10:30:00 PM -14.4705 -66.4433 342° North  Level FlightAware Approximate
Wed 10:31:00 PM -14.3523 -66.4828 342° North  Level FlightAware Approximate
Wed 10:32:00 PM -14.2342 -66.5222 342° North  Level FlightAware Approximate
Wed 10:33:00 PM -14.1160 -66.5616 342° North  Level FlightAware Approximate
Wed 10:34:00 PM -13.9979 -66.6010 342° North  Level FlightAware Approximate
Wed 10:35:00 PM -13.8797 -66.6403 342° North  Level FlightAware Approximate
Wed 10:36:00 PM -13.7615 -66.6795 342° North  Level FlightAware Approximate
Wed 10:37:00 PM -13.6431 -66.7188 342° North  Level FlightAware Approximate
Wed 10:38:00 PM -13.5247 -66.7580 342° North  Level FlightAware Approximate
Wed 10:39:00 PM -13.4063 -66.7973 342° North  Level FlightAware Approximate
Wed 10:40:00 PM -13.2879 -66.8364 342° North  Level FlightAware Approximate
Wed 10:41:00 PM -13.1695 -66.8756 342° North  Level FlightAware Approximate
Wed 10:42:00 PM -13.0511 -66.9147 342° North  Level FlightAware Approximate
Wed 10:43:00 PM -12.9327 -66.9537 342° North  Level FlightAware Approximate
Wed 10:44:00 PM -12.8143 -66.9927 342° North  Level FlightAware Approximate
Wed 10:45:00 PM -12.6958 -67.0317 342° North  Level FlightAware Approximate
Wed 10:46:00 PM -12.5774 -67.0707 342° North  Level FlightAware Approximate
Wed 10:47:00 PM -12.4590 -67.1096 342° North  Level FlightAware Approximate
Wed 10:48:00 PM -12.3405 -67.1485 342° North  Level FlightAware Approximate
Wed 10:49:00 PM -12.2221 -67.1873 342° North  Level FlightAware Approximate
Wed 10:50:00 PM -12.1036 -67.2261 342° North  Level FlightAware Approximate
Wed 10:51:00 PM -11.9851 -67.2649 342° North  Level FlightAware Approximate
Wed 10:52:00 PM -11.8667 -67.3036 342° North  Level FlightAware Approximate
Wed 10:53:00 PM -11.7482 -67.3423 342° North  Level FlightAware Approximate
Wed 10:54:00 PM -11.6297 -67.3810 342° North  Level FlightAware Approximate
Wed 10:55:00 PM -11.5112 -67.4196 342° North  Level FlightAware Approximate
Wed 10:56:00 PM -11.3927 -67.4582 342° North  Level FlightAware Approximate
Wed 10:57:00 PM -11.2742 -67.4968 342° North  Level FlightAware Approximate
Wed 10:58:00 PM -11.1557 -67.5353 342° North  Level FlightAware Approximate
Wed 10:59:00 PM -11.0372 -67.5739 342° North  Level FlightAware Approximate
Wed 11:00:00 PM -10.9187 -67.6123 342° North  Level FlightAware Approximate
Wed 11:01:00 PM -10.8002 -67.6508 342° North  Level FlightAware Approximate
Wed 11:02:00 PM -10.6817 -67.6892 342° North  Level FlightAware Approximate
Wed 11:03:00 PM -10.5632 -67.7276 342° North  Level FlightAware Approximate
Wed 11:04:00 PM -10.4446 -67.7660 342° North  Level FlightAware Approximate
Wed 11:05:00 PM -10.3261 -67.8043 342° North  Level FlightAware Approximate
Wed 11:06:00 PM -10.2076 -67.8426 342° North  Level FlightAware Approximate
Wed 11:07:00 PM -10.0890 -67.8809 342° North  Level FlightAware Approximate
Wed 11:08:00 PM -9.9705 -67.9191 342° North  Level FlightAware Approximate
Wed 11:09:00 PM -9.8519 -67.9573 342° North  Level FlightAware Approximate
Wed 11:10:00 PM -9.7334 -67.9955 342° North  Level FlightAware Approximate
Wed 11:11:00 PM -9.6148 -68.0337 342° North  Level FlightAware Approximate
Wed 11:12:00 PM -9.4963 -68.0718 342° North  Level FlightAware Approximate
Wed 11:13:00 PM -9.3777 -68.1099 342° North  Level FlightAware Approximate
Wed 11:14:00 PM -9.2591 -68.1480 342° North  Level FlightAware Approximate
Wed 11:15:00 PM -9.1405 -68.1861 342° North  Level FlightAware Approximate
Wed 11:16:00 PM -9.0219 -68.2241 342° North  Level FlightAware Approximate
Wed 11:17:00 PM -8.9034 -68.2621 342° North  Level FlightAware Approximate
Wed 11:18:00 PM -8.7848 -68.3001 342° North  Level FlightAware Approximate
Wed 11:19:00 PM -8.6662 -68.3380 342° North  Level FlightAware Approximate
Wed 11:20:00 PM -8.5476 -68.3760 342° North  Level FlightAware Approximate
Wed 11:21:00 PM -8.4290 -68.4139 342° North  Level FlightAware Approximate
Wed 11:22:00 PM -8.3104 -68.4518 342° North  Level FlightAware Approximate
Wed 11:23:00 PM -8.1918 -68.4896 342° North  Level FlightAware Approximate
Wed 11:24:00 PM -8.0732 -68.5275 342° North  Level FlightAware Approximate
Wed 11:25:00 PM -7.9546 -68.5653 342° North  Level FlightAware Approximate
Wed 11:26:00 PM -7.8359 -68.6031 342° North  Level FlightAware Approximate
Wed 11:27:00 PM -7.7173 -68.6409 342° North  Level FlightAware Approximate
Wed 11:28:00 PM -7.5987 -68.6786 342° North  Level FlightAware Approximate
Wed 11:29:00 PM -7.4801 -68.7163 342° North  Level FlightAware Approximate
Wed 11:30:00 PM -7.3614 -68.7541 343° North  Level FlightAware Approximate
Wed 11:31:00 PM -7.2428 -68.7917 343° North  Level FlightAware Approximate
Wed 11:32:00 PM -7.1242 -68.8294 343° North  Level FlightAware Approximate
Wed 11:33:00 PM -7.0055 -68.8671 343° North  Level FlightAware Approximate
Wed 11:34:00 PM -6.8869 -68.9047 343° North  Level FlightAware Approximate
Wed 11:35:00 PM -6.7682 -68.9423 343° North  Level FlightAware Approximate
Wed 11:36:00 PM -6.6496 -68.9799 343° North  Level FlightAware Approximate
Wed 11:37:00 PM -6.5309 -69.0175 343° North  Level FlightAware Approximate
Wed 11:38:00 PM -6.4123 -69.0551 343° North  Level FlightAware Approximate
Wed 11:39:00 PM -6.2936 -69.0926 343° North  Level FlightAware Approximate
Wed 11:40:00 PM -6.1750 -69.1301 343° North  Level FlightAware Approximate
Wed 11:41:00 PM -6.0563 -69.1676 343° North  Level FlightAware Approximate
Wed 11:42:00 PM -5.9377 -69.2051 343° North  Level FlightAware Approximate
Wed 11:43:00 PM -5.8190 -69.2426 343° North  Level FlightAware Approximate
Wed 11:44:00 PM -5.7003 -69.2801 343° North  Level FlightAware Approximate
Wed 11:45:00 PM -5.5816 -69.3175 343° North  Level FlightAware Approximate
Wed 11:46:00 PM -5.4630 -69.3549 343° North  Level FlightAware Approximate
Wed 11:47:00 PM -5.3443 -69.3924 343° North  Level FlightAware Approximate
Wed 11:48:00 PM -5.2256 -69.4298 343° North  Level FlightAware Approximate
Wed 11:49:00 PM -5.1069 -69.4672 343° North  Level FlightAware Approximate
Wed 11:50:00 PM -4.9882 -69.5045 343° North  Level FlightAware Approximate
Wed 11:51:00 PM -4.8696 -69.5419 343° North  Level FlightAware Approximate
Wed 11:52:00 PM -4.7509 -69.5792 343° North  Level FlightAware Approximate
Wed 11:53:00 PM -4.6322 -69.6166 343° North  Level FlightAware Approximate
Wed 11:54:00 PM -4.5135 -69.6539 343° North  Level FlightAware Approximate
Wed 11:55:00 PM -4.3948 -69.6912 343° North  Level FlightAware Approximate
Wed 11:56:00 PM -4.2761 -69.7285 343° North  Level FlightAware Approximate
Wed 11:57:00 PM -4.1576 -69.7657 343° North  Level FlightAware Approximate
Wed 11:58:00 PM -4.0391 -69.8029 343° North  Level FlightAware Approximate
Wed 11:59:00 PM -3.9206 -69.8401 343° North  Level FlightAware Approximate
Thu 12:00:00 AM -3.8021 -69.8773 343° North  Level FlightAware Approximate
Thu 12:01:00 AM -3.6836 -69.9145 343° North  Level FlightAware Approximate
Thu 12:02:00 AM -3.5651 -69.9517 343° North  Level FlightAware Approximate
Thu 12:03:00 AM -3.4466 -69.9888 343° North  Level FlightAware Approximate
Thu 12:04:00 AM -3.3281 -70.0260 343° North  Level FlightAware Approximate
Thu 12:05:00 AM -3.2096 -70.0631 343° North  Level FlightAware Approximate
Thu 12:06:00 AM -3.0911 -70.1003 343° North  Level FlightAware Approximate
Thu 12:07:00 AM -2.9726 -70.1374 343° North  Level FlightAware Approximate
Thu 12:08:00 AM -2.8540 -70.1745 343° North  Level FlightAware Approximate
Thu 12:09:00 AM -2.7355 -70.2116 343° North  Level FlightAware Approximate
Thu 12:10:00 AM -2.6170 -70.2487 343° North  Level FlightAware Approximate
Thu 12:11:00 AM -2.4985 -70.2858 343° North  Level FlightAware Approximate
Thu 12:12:00 AM -2.3800 -70.3229 343° North  Level FlightAware Approximate
Thu 12:13:00 AM -2.2615 -70.3600 343° North  Level FlightAware Approximate
Thu 12:14:00 AM -2.1430 -70.3971 343° North  Level FlightAware Approximate
Thu 12:15:00 AM -2.0244 -70.4341 343° North  Level FlightAware Approximate
Thu 12:16:00 AM -1.9059 -70.4712 343° North  Level FlightAware Approximate
Thu 12:17:00 AM -1.7874 -70.5083 343° North  Level FlightAware Approximate
Thu 12:18:00 AM -1.6689 -70.5453 343° North  Level FlightAware Approximate
Thu 12:19:00 AM -1.5503 -70.5824 343° North  Level FlightAware Approximate
Thu 12:20:00 AM -1.4318 -70.6194 343° North  Level FlightAware Approximate
Thu 12:21:00 AM -1.3133 -70.6565 343° North  Level FlightAware Approximate
Thu 12:22:00 AM -1.1948 -70.6935 343° North  Level FlightAware Approximate
Thu 12:23:00 AM -1.0763 -70.7305 343° North  Level FlightAware Approximate
Thu 12:24:00 AM -0.9577 -70.7676 343° North  Level FlightAware Approximate
Thu 12:25:00 AM -0.8392 -70.8046 343° North  Level FlightAware Approximate
Thu 12:26:00 AM -0.7207 -70.8416 343° North  Level FlightAware Approximate
Thu 12:27:00 AM -0.6021 -70.8787 343° North  Level FlightAware Approximate
Thu 12:28:00 AM -0.4836 -70.9157 343° North  Level FlightAware Approximate
Thu 12:29:00 AM -0.3651 -70.9527 343° North  Level FlightAware Approximate
Thu 12:30:00 AM -0.2465 -70.9897 343° North  Level FlightAware Approximate
Thu 12:31:00 AM -0.1280 -71.0267 343° North  Level FlightAware Approximate
Thu 12:32:00 AM -0.0095 -71.0638 343° North  Level FlightAware Approximate
Thu 12:33:00 AM 0.1090 -71.1008 343° North  Level FlightAware Approximate
Thu 12:34:00 AM 0.2276 -71.1378 343° North  Level FlightAware Approximate
Thu 12:35:00 AM 0.3461 -71.1748 343° North  Level FlightAware Approximate
Thu 12:36:00 AM 0.4646 -71.2118 343° North  Level FlightAware Approximate
Thu 12:37:00 AM 0.5832 -71.2489 343° North  Level FlightAware Approximate
Thu 12:38:00 AM 0.7017 -71.2859 343° North  Level FlightAware Approximate
Thu 12:39:00 AM 0.8202 -71.3229 343° North  Level FlightAware Approximate
Thu 12:40:00 AM 0.9388 -71.3600 343° North  Level FlightAware Approximate
Thu 12:41:00 AM 1.0573 -71.3970 343° North  Level FlightAware Approximate
Thu 12:42:00 AM 1.1758 -71.4340 343° North  Level FlightAware Approximate
Thu 12:43:00 AM 1.2943 -71.4711 343° North  Level FlightAware Approximate
Thu 12:44:00 AM 1.4128 -71.5081 343° North  Level FlightAware Approximate
Thu 12:45:00 AM 1.5314 -71.5452 343° North  Level FlightAware Approximate
Thu 12:46:00 AM 1.6499 -71.5822 343° North  Level FlightAware Approximate
Thu 12:47:00 AM 1.7684 -71.6193 343° North  Level FlightAware Approximate
Thu 12:48:00 AM 1.8869 -71.6563 343° North  Level FlightAware Approximate
Thu 12:49:00 AM 2.0055 -71.6934 343° North  Level FlightAware Approximate
Thu 12:50:00 AM 2.1240 -71.7305 343° North  Level FlightAware Approximate
Thu 12:51:00 AM 2.2425 -71.7676 343° North  Level FlightAware Approximate
Thu 12:52:00 AM 2.3610 -71.8047 343° North  Level FlightAware Approximate
Thu 12:53:00 AM 2.4795 -71.8418 343° North  Level FlightAware Approximate
Thu 12:54:00 AM 2.5980 -71.8789 343° North  Level FlightAware Approximate
Thu 12:55:00 AM 2.7165 -71.9160 343° North  Level FlightAware Approximate
Thu 12:56:00 AM 2.8350 -71.9531 343° North  Level FlightAware Approximate
Thu 12:57:00 AM 2.9535 -71.9902 343° North  Level FlightAware Approximate
Thu 12:58:00 AM 3.0721 -72.0274 343° North  Level FlightAware Approximate
Thu 12:59:00 AM 3.1906 -72.0645 343° North  Level FlightAware Approximate
Thu 01:00:00 AM 3.3091 -72.1017 343° North  Level FlightAware Approximate
Thu 01:01:00 AM 3.4276 -72.1388 343° North  Level FlightAware Approximate
Thu 01:02:00 AM 3.5461 -72.1760 343° North  Level FlightAware Approximate
Thu 01:03:00 AM 3.6646 -72.2132 343° North  Level FlightAware Approximate
Thu 01:04:00 AM 3.7831 -72.2504 343° North  Level FlightAware Approximate
Thu 01:05:00 AM 3.9016 -72.2876 343° North  Level FlightAware Approximate
Thu 01:06:00 AM 4.0201 -72.3248 343° North  Level FlightAware Approximate
Thu 01:07:00 AM 4.1385 -72.3620 343° North  Level FlightAware Approximate
Thu 01:08:00 AM 4.2572 -72.3993 343° North  Level FlightAware Approximate
Thu 01:09:00 AM 4.3759 -72.4366 343° North  Level FlightAware Approximate
Thu 01:10:00 AM 4.4946 -72.4740 343° North  Level FlightAware Approximate
Thu 01:11:00 AM 4.6133 -72.5113 343° North  Level FlightAware Approximate
Thu 01:12:00 AM 4.7320 -72.5486 343° North  Level FlightAware Approximate
Thu 01:13:00 AM 4.8508 -72.5857 343° North  Level FlightAware Approximate
Thu 01:14:00 AM 4.9695 -72.6229 343° North  Level FlightAware Approximate
Thu 01:15:00 AM 5.0883 -72.6601 343° North  Level FlightAware Approximate
Thu 01:16:00 AM 5.2070 -72.6973 343° North  Level FlightAware Approximate
Thu 01:17:00 AM 5.3257 -72.7345 343° North  Level FlightAware Approximate
Thu 01:18:00 AM 5.4445 -72.7717 343° North  Level FlightAware Approximate
Thu 01:19:00 AM 5.5612 -72.8083 343° North  Level FlightAware Approximate
Thu 01:20:00 AM 5.6780 -72.8450 343° North  Level FlightAware Approximate
Thu 01:21:00 AM 5.7947 -72.8816 343° North  Level FlightAware Approximate
Thu 01:22:00 AM 5.9115 -72.9183 343° North  Level FlightAware Approximate
Thu 01:23:00 AM 6.0282 -72.9550 343° North  Level FlightAware Approximate
Thu 01:24:00 AM 6.1449 -72.9917 343° North  Level FlightAware Approximate
Thu 01:25:00 AM 6.2617 -73.0284 343° North  Level FlightAware Approximate
Thu 01:26:00 AM 6.3784 -73.0651 343° North  Level FlightAware Approximate
Thu 01:27:00 AM 6.4952 -73.1019 343° North  Level FlightAware Approximate
Thu 01:28:00 AM 6.6119 -73.1386 343° North  Level FlightAware Approximate
Thu 01:29:00 AM 6.7286 -73.1754 343° North  Level FlightAware Approximate
Thu 01:30:00 AM 6.8453 -73.2122 343° North  Level FlightAware Approximate
Thu 01:31:00 AM 6.9621 -73.2490 343° North  Level FlightAware Approximate
Thu 01:32:00 AM 7.0788 -73.2859 343° North  Level FlightAware Approximate
Thu 01:33:00 AM 7.1955 -73.3227 343° North  Level FlightAware Approximate
Thu 01:34:00 AM 7.3122 -73.3596 343° North  Level FlightAware Approximate
Thu 01:35:00 AM 7.4289 -73.3965 343° North  Level FlightAware Approximate
Thu 01:36:00 AM 7.5456 -73.4334 343° North  Level FlightAware Approximate
Thu 01:37:00 AM 7.6623 -73.4703 343° North  Level FlightAware Approximate
Thu 01:38:00 AM 7.7790 -73.5073 343° North  Level FlightAware Approximate
Thu 01:39:00 AM 7.8957 -73.5442 343° North  Level FlightAware Approximate
Thu 01:40:00 AM 8.0124 -73.5812 343° North  Level FlightAware Approximate
Thu 01:41:00 AM 8.1291 -73.6182 343° North  Level FlightAware Approximate
Thu 01:42:00 AM 8.2458 -73.6553 343° North  Level FlightAware Approximate
Thu 01:43:00 AM 8.3625 -73.6923 343° North  Level FlightAware Approximate
Thu 01:44:00 AM 8.4792 -73.7294 343° North  Level FlightAware Approximate
Thu 01:45:00 AM 8.5959 -73.7665 343° North  Level FlightAware Approximate
Thu 01:46:00 AM 8.7126 -73.8036 343° North  Level FlightAware Approximate
Thu 01:47:00 AM 8.8292 -73.8408 343° North  Level FlightAware Approximate
Thu 01:48:00 AM 8.9459 -73.8780 343° North  Level FlightAware Approximate
Thu 01:49:00 AM 9.0625 -73.9152 343° North  Level FlightAware Approximate
Thu 01:50:00 AM 9.1792 -73.9524 343° North  Level FlightAware Approximate
Thu 01:51:00 AM 9.2959 -73.9896 343° North  Level FlightAware Approximate
Thu 01:52:00 AM 9.4125 -74.0269 343° North  Level FlightAware Approximate
Thu 01:53:00 AM 9.5292 -74.0642 343° North  Level FlightAware Approximate
Thu 01:54:00 AM 9.6458 -74.1015 342° North  Level FlightAware Approximate
Thu 01:55:00 AM 9.7625 -74.1388 342° North  Level FlightAware Approximate
Thu 01:56:00 AM 9.8791 -74.1762 342° North  Level FlightAware Approximate
Thu 01:57:00 AM 9.9957 -74.2136 342° North  Level FlightAware Approximate
Thu 01:58:00 AM 10.1124 -74.2510 342° North  Level FlightAware Approximate
Thu 01:59:00 AM 10.2290 -74.2885 342° North  Level FlightAware Approximate
Thu 02:00:00 AM 10.3456 -74.3261 342° North  Level FlightAware Approximate
Thu 02:01:00 AM 10.4621 -74.3639 342° North  Level FlightAware Approximate
Thu 02:02:00 AM 10.5786 -74.4018 342° North  Level FlightAware Approximate
Thu 02:03:00 AM 10.6951 -74.4398 342° North  Level FlightAware Approximate
Thu 02:04:00 AM 10.8115 -74.4778 342° North  Level FlightAware Approximate
Thu 02:05:00 AM 10.9280 -74.5158 342° North  Level FlightAware Approximate
Thu 02:06:00 AM 11.0445 -74.5538 342° North  Level FlightAware Approximate
Thu 02:07:00 AM 11.1610 -74.5919 342° North  Level FlightAware Approximate
Thu 02:08:00 AM 11.2774 -74.6299 342° North  Level FlightAware Approximate
Thu 02:09:00 AM 11.3939 -74.6681 342° North  Level FlightAware Approximate
Thu 02:10:00 AM 11.5104 -74.7062 342° North  Level FlightAware Approximate
Thu 02:11:00 AM 11.6268 -74.7444 342° North  Level FlightAware Approximate
Thu 02:12:00 AM 11.7432 -74.7826 342° North  Level FlightAware Approximate
Thu 02:13:00 AM 11.8597 -74.8209 342° North  Level FlightAware Approximate
Thu 02:14:00 AM 11.9761 -74.8592 342° North  Level FlightAware Approximate
Thu 02:15:00 AM 12.0926 -74.8975 342° North  Level FlightAware Approximate
Thu 02:16:00 AM 12.2090 -74.9358 342° North  Level FlightAware Approximate
Thu 02:17:00 AM 12.3254 -74.9742 342° North  Level FlightAware Approximate
Thu 02:18:00 AM 12.4418 -75.0126 342° North  Level FlightAware Approximate
Thu 02:19:00 AM 12.5606 -75.0519 342° North  Level FlightAware Approximate
Thu 02:20:00 AM 12.6794 -75.0911 342° North  Level FlightAware Approximate
Thu 02:21:00 AM 12.7981 -75.1304 342° North  Level FlightAware Approximate
Thu 02:22:00 AM 12.9169 -75.1698 342° North  Level FlightAware Approximate
Thu 02:23:00 AM 13.0357 -75.2092 342° North  Level FlightAware Approximate
Thu 02:24:00 AM 13.1544 -75.2486 342° North  Level FlightAware Approximate
Thu 02:25:00 AM 13.2732 -75.2880 342° North  Level FlightAware Approximate
Thu 02:26:00 AM 13.3919 -75.3276 342° North  Level FlightAware Approximate
Thu 02:27:00 AM 13.5107 -75.3671 342° North  Level FlightAware Approximate
Thu 02:28:00 AM 13.6294 -75.4067 342° North  Level FlightAware Approximate
Thu 02:29:00 AM 13.7481 -75.4463 342° North  Level FlightAware Approximate
Thu 02:30:00 AM 13.8668 -75.4859 342° North  Level FlightAware Approximate
Thu 02:31:00 AM 13.9855 -75.5257 342° North  Level FlightAware Approximate
Thu 02:32:00 AM 14.1042 -75.5654 342° North  Level FlightAware Approximate
Thu 02:33:00 AM 14.2229 -75.6052 342° North  Level FlightAware Approximate
Thu 02:34:00 AM 14.3416 -75.6450 342° North  Level FlightAware Approximate
Thu 02:35:00 AM 14.4603 -75.6849 342° North  Level FlightAware Approximate
Thu 02:36:00 AM 14.5790 -75.7247 342° North  Level FlightAware Approximate
Thu 02:37:00 AM 14.6977 -75.7647 342° North  Level FlightAware Approximate
Thu 02:38:00 AM 14.8163 -75.8047 342° North  Level FlightAware Approximate
Thu 02:39:00 AM 14.9350 -75.8447 342° North  Level FlightAware Approximate
Thu 02:40:00 AM 15.0537 -75.8846 342° North  Level FlightAware Approximate
Thu 02:41:00 AM 15.1726 -75.9241 342° North  Level FlightAware Approximate
Thu 02:42:00 AM 15.2914 -75.9637 342° North  Level FlightAware Approximate
Thu 02:43:00 AM 15.4102 -76.0034 342° North  Level FlightAware Approximate
Thu 02:44:00 AM 15.5290 -76.0431 342° North  Level FlightAware Approximate
Thu 02:45:00 AM 15.6477 -76.0828 342° North  Level FlightAware Approximate
Thu 02:46:00 AM 15.7665 -76.1226 342° North  Level FlightAware Approximate
Thu 02:47:00 AM 15.8853 -76.1625 342° North  Level FlightAware Approximate
Thu 02:48:00 AM 16.0041 -76.2024 342° North  Level FlightAware Approximate
Thu 02:49:00 AM 16.1228 -76.2423 342° North  Level FlightAware Approximate
Thu 02:50:00 AM 16.2416 -76.2823 342° North  Level FlightAware Approximate
Thu 02:51:00 AM 16.3603 -76.3223 342° North  Level FlightAware Approximate
Thu 02:52:00 AM 16.4791 -76.3624 342° North  Level FlightAware Approximate
Thu 02:53:00 AM 16.5978 -76.4025 342° North  Level FlightAware Approximate
Thu 02:54:00 AM 16.7165 -76.4427 342° North  Level FlightAware Approximate
Thu 02:55:00 AM 16.8353 -76.4829 342° North  Level FlightAware Approximate
Thu 02:56:00 AM 16.9540 -76.5232 342° North  Level FlightAware Approximate
Thu 02:57:00 AM 17.0727 -76.5635 342° North  Level FlightAware Approximate
Thu 02:58:00 AM 17.1914 -76.6039 342° North  Level FlightAware Approximate
Thu 02:59:00 AM 17.3100 -76.6443 342° North  Level FlightAware Approximate
Thu 03:00:00 AM 17.4287 -76.6848 342° North  Level FlightAware Approximate
Thu 03:01:00 AM 17.5474 -76.7254 342° North  Level FlightAware Approximate
Thu 03:02:00 AM 17.6660 -76.7660 342° North  Level FlightAware Approximate
Thu 03:03:00 AM 17.7847 -76.8066 342° North  Level FlightAware Approximate
Thu 03:04:00 AM 17.9033 -76.8473 342° North  Level FlightAware Approximate
Thu 03:05:00 AM 18.0220 -76.8881 342° North  Level FlightAware Approximate
Thu 03:06:00 AM 18.1406 -76.9289 342° North  Level FlightAware Approximate
Thu 03:07:00 AM 18.2592 -76.9697 342° North  Level FlightAware Approximate
Thu 03:08:00 AM 18.3778 -77.0107 342° North  Level FlightAware Approximate
Thu 03:09:00 AM 18.4964 -77.0517 342° North  Level FlightAware Approximate
Thu 03:10:00 AM 18.6150 -77.0927 342° North  Level FlightAware Approximate
Thu 03:11:00 AM 18.7336 -77.1338 342° North  Level FlightAware Approximate
Thu 03:12:00 AM 18.8522 -77.1749 342° North  Level FlightAware Approximate
Thu 03:13:00 AM 18.9707 -77.2161 342° North  Level FlightAware Approximate
Thu 03:14:00 AM 19.0893 -77.2574 342° North  Level FlightAware Approximate
Thu 03:15:00 AM 19.2078 -77.2987 342° North  Level FlightAware Approximate
Thu 03:16:00 AM 19.3264 -77.3401 342° North  Level FlightAware Approximate
Thu 03:17:00 AM 19.4449 -77.3816 342° North  Level FlightAware Approximate
Thu 03:18:00 AM 19.5627 -77.4255 341° North  Level FlightAware Approximate
Thu 03:19:00 AM 19.6803 -77.4695 341° North  Level FlightAware Approximate
Thu 03:20:00 AM 19.7980 -77.5137 341° North  Level FlightAware Approximate
Thu 03:21:00 AM 19.9157 -77.5579 341° North  Level FlightAware Approximate
Thu 03:22:00 AM 20.0337 -77.6012 342° North  Level FlightAware Approximate
Thu 03:23:00 AM 20.1521 -77.6432 342° North  Level FlightAware Approximate
Thu 03:24:00 AM 20.2705 -77.6854 342° North  Level FlightAware Approximate
Thu 03:25:00 AM 20.3901 -77.7280 342° North  Level FlightAware Approximate
Thu 03:26:00 AM 20.5096 -77.7707 342° North  Level FlightAware Approximate
Thu 03:27:00 AM 20.6292 -77.8134 342° North  Level FlightAware Approximate
Thu 03:28:00 AM 20.7488 -77.8562 341° North  Level FlightAware Approximate
Thu 03:29:00 AM 20.8683 -77.8991 341° North  Level FlightAware Approximate
Thu 03:30:00 AM 20.9879 -77.9421 341° North  Level FlightAware Approximate
Thu 03:31:00 AM 21.1074 -77.9851 341° North  Level FlightAware Approximate
Thu 03:32:00 AM 21.2269 -78.0282 341° North  Level FlightAware Approximate
Thu 03:33:00 AM 21.3464 -78.0714 341° North  Level FlightAware Approximate
Thu 03:34:00 AM 21.4659 -78.1146 341° North  Level FlightAware Approximate
Thu 03:35:00 AM 21.5854 -78.1579 341° North  Level FlightAware Approximate
Thu 03:36:00 AM 21.7049 -78.2012 341° North  Level FlightAware Approximate
Thu 03:37:00 AM 21.8243 -78.2447 341° North  Level FlightAware Approximate
Thu 03:38:00 AM 21.9438 -78.2882 341° North  Level FlightAware Approximate
Thu 03:39:00 AM 22.0632 -78.3318 341° North  Level FlightAware Approximate
Thu 03:40:00 AM 22.1827 -78.3755 341° North  Level FlightAware Approximate
Thu 03:41:00 AM 22.3021 -78.4192 341° North  Level FlightAware Approximate
Thu 03:42:00 AM 22.4215 -78.4630 341° North  Level FlightAware Approximate
Thu 03:43:00 AM 22.5409 -78.5069 341° North  Level FlightAware Approximate
Thu 03:44:00 AM 22.6603 -78.5509 341° North  Level FlightAware Approximate
Thu 03:45:00 AM 22.7796 -78.5949 341° North  Level FlightAware Approximate
Thu 03:46:00 AM 22.8990 -78.6391 341° North  Level FlightAware Approximate
Thu 03:47:00 AM 23.0184 -78.6833 341° North  Level FlightAware Approximate
Thu 03:48:00 AM 23.1377 -78.7275 341° North  Level FlightAware Approximate
Thu 03:49:00 AM 23.2570 -78.7719 341° North  Level FlightAware Approximate
Thu 03:50:00 AM 23.3763 -78.8163 341° North  Level FlightAware Approximate
Thu 03:51:00 AM 23.4956 -78.8608 341° North  Level FlightAware Approximate
Thu 03:52:00 AM 23.6149 -78.9054 341° North  Level FlightAware Approximate
Thu 03:53:00 AM 23.7342 -78.9501 341° North  Level FlightAware Approximate
Thu 03:54:00 AM 23.8534 -78.9949 341° North  Level FlightAware Approximate
Thu 03:55:00 AM 23.9727 -79.0397 341° North  Level FlightAware Approximate
Thu 03:56:00 AM 24.0906 -79.0884 341° North  Level FlightAware Approximate
Thu 03:57:00 AM 24.2097 -79.1336 341° North  Level FlightAware Approximate
Thu 03:58:00 AM 24.3289 -79.1789 341° North  Level FlightAware Approximate
Thu 03:59:00 AM 24.4480 -79.2243 341° North  Level FlightAware Approximate
Thu 04:00:00 AM 24.5671 -79.2697 341° North  Level FlightAware Approximate
Thu 04:01:00 AM 24.6862 -79.3153 341° North  Level FlightAware Approximate
Thu 04:02:00 AM 24.8053 -79.3609 341° North  Level FlightAware Approximate
Thu 04:03:00 AM 24.9244 -79.4066 341° North  Level FlightAware Approximate
Thu 04:04:00 AM 25.0434 -79.4525 341° North  Level FlightAware Approximate
Thu 04:05:00 AM 25.1625 -79.4984 341° North  Level FlightAware Approximate
Thu 04:06:00 AM 25.2817 -79.5437 341° North  Level FlightAware Approximate
Thu 04:07:00 AM 25.4009 -79.5892 341° North  Level FlightAware Approximate
Thu 04:08:00 AM 25.5202 -79.6347 341° North  Level FlightAware Approximate
Thu 04:09:00 AM 25.6395 -79.6796 341° North  Level FlightAware Approximate
Thu 04:10:00 AM 25.7589 -79.7247 341° North  Level FlightAware Approximate
Thu 04:11:00 AM 25.8783 -79.7699 341° North  Level FlightAware Approximate
Thu 04:12:00 AM 25.9976 -79.8151 341° North  Level FlightAware Approximate
Thu 04:13:00 AM 26.1170 -79.8605 341° North  Level FlightAware Approximate
Thu 04:14:00 AM 26.2355 -79.9082 340° North  Level FlightAware Approximate
Thu 04:15:00 AM 26.3540 -79.9565 340° North  Level FlightAware Approximate
Thu 04:16:00 AM 26.4724 -80.0049 340° North  Level FlightAware Approximate
Thu 04:17:00 AM 26.5908 -80.0533 340° North  Level FlightAware Approximate
Thu 04:18:00 AM 26.7092 -80.1019 340° North  Level FlightAware Approximate
Thu 04:19:00 AM 26.8276 -80.1506 340° North  Level FlightAware Approximate
Thu 04:20:00 AM 26.9464 -80.1980 341° North  Level FlightAware Approximate
Thu 04:21:00 AM 27.0653 -80.2449 341° North  Level FlightAware Approximate
Thu 04:22:00 AM 27.1843 -80.2918 341° North  Level FlightAware Approximate
Thu 04:23:00 AM 27.3032 -80.3389 341° North  Level FlightAware Approximate
Thu 04:24:00 AM 27.4222 -80.3860 341° North  Level FlightAware Approximate
Thu 04:25:00 AM 27.5411 -80.4333 341° North  Level FlightAware Approximate
Thu 04:26:00 AM 27.6600 -80.4807 341° North  Level FlightAware Approximate
Thu 04:27:00 AM 27.7800 -80.5246 342° North  Level FlightAware Approximate
Thu 04:28:00 AM 27.9000 -80.5683 342° North  Level FlightAware Approximate
Thu 04:29:00 AM 28.0200 -80.6122 342° North  Level FlightAware Approximate
Thu 04:29:43 AM 28.8753 -80.8939 341° North 441 507 38,000  Level Jacksonville Center
Thu 04:30:00 AM 28.1399 -80.6561 342° North  Level FlightAware Approximate
Thu 04:30:43 AM 28.9828 -80.9628 331° Northwest 439 505 38,000  Level Jacksonville Center
Thu 04:31:00 AM 28.2599 -80.7002 342° North  Level FlightAware Approximate
Thu 04:31:43 AM 29.0903 -81.0297 331° Northwest 444 511 38,000  Level Jacksonville Center
Thu 04:32:00 AM 28.3796 -80.7451 341° North  Level FlightAware Approximate
Thu 04:32:43 AM 29.1975 -81.0967 331° Northwest 450 518 38,000  Level Jacksonville Center
Thu 04:33:00 AM 28.4986 -80.7927 341° North  Level FlightAware Approximate
Thu 04:33:43 AM 29.3028 -81.1636 331° Northwest 450 518 38,000  Level Jacksonville Center
Thu 04:34:00 AM 28.6176 -80.8403 341° North  Level FlightAware Approximate
Thu 04:34:43 AM 29.4081 -81.2333 330° Northwest 450 518 38,000  Level Jacksonville Center
Thu 04:35:43 AM 29.5133 -81.3056 329° Northwest 455 524 38,000  Level Jacksonville Center
Thu 04:36:43 AM 29.6208 -81.3731 331° Northwest 450 518 38,000  Level Jacksonville Center
Thu 04:37:43 AM 29.7300 -81.4431 331° Northwest 450 518 38,000  Level Jacksonville Center
Thu 04:38:43 AM 29.8353 -81.5111 331° Northwest 456 525 38,000  Level Jacksonville Center
Thu 04:39:43 AM 29.9444 -81.5814 331° Northwest 450 518 38,000  Level Jacksonville Center
Thu 04:40:43 AM 30.0517 -81.6519 330° Northwest 444 511 38,000  Level Jacksonville Center
Thu 04:41:43 AM 30.1567 -81.7203 331° Northwest 444 511 38,000  Level Jacksonville Center
Thu 04:42:43 AM 30.2639 -81.7864 332° Northwest 439 505 38,000  Level Jacksonville Center
Thu 04:43:43 AM 30.3689 -81.8550 331° Northwest 434 499 38,000  Level Jacksonville Center
Thu 04:44:43 AM 30.4758 -81.9261 330° Northwest 434 499 38,000 -250 Level Jacksonville Center
Thu 04:45:43 AM 30.5744 -81.9975 328° Northwest 451 519 37,500 -750 Descending Jacksonville Center
Thu 04:46:43 AM 30.6772 -82.0667 330° Northwest 441 507 36,500 -1,150 Descending Jacksonville Center
Thu 04:47:43 AM 30.7800 -82.1358 330° Northwest 436 502 35,200 -1,200 Descending Jacksonville Center
Thu 04:48:43 AM 30.8828 -82.2028 331° Northwest 426 490 34,100 -1,100 Descending Jacksonville Center
Thu 04:49:43 AM 30.9853 -82.2722 330° Northwest 426 490 33,000 -550 Descending Jacksonville Center
Thu 04:50:43 AM 31.0881 -82.3419 330° Northwest 426 490 33,000  Level Jacksonville Center
Thu 04:51:43 AM 31.1947 -82.4117 331° Northwest 426 490 33,000  Level Jacksonville Center
Thu 04:52:43 AM 31.2972 -82.4817 330° Northwest 426 490 33,000  Level Jacksonville Center
Thu 04:53:43 AM 31.3997 -82.5494 331° Northwest 426 490 33,000  Level Jacksonville Center
Thu 04:56:05 AM 31.6478 -82.7214 329° Northwest 424 488 33,000  Level Atlanta Center
Thu 04:57:05 AM 31.7550 -82.7908 331° Northwest 424 488 33,000  Level Atlanta Center
Thu 04:58:05 AM 31.8578 -82.8628 329° Northwest 424 488 33,000  Level Atlanta Center
Thu 04:59:05 AM 31.9628 -82.9322 331° Northwest 424 488 33,000  Level Atlanta Center
Thu 05:00:05 AM 32.0658 -83.0169 325° Northwest 434 499 33,000  Level Atlanta Center
Thu 05:01:05 AM 32.1625 -83.1017 323° Northwest 439 505 33,000  Level Atlanta Center
Thu 05:02:05 AM 32.2614 -83.1889 323° Northwest 439 505 33,000  Level Atlanta Center
Thu 05:03:05 AM 32.3578 -83.2789 322° Northwest 439 505 33,000 -450 Level Atlanta Center
Thu 05:04:05 AM 32.4564 -83.3644 324° Northwest 439 505 32,100 -1,700 Descending Atlanta Center
Thu 05:05:05 AM 32.5531 -83.4522 323° Northwest 444 511 29,600 -2,450 Descending Atlanta Center
Thu 05:06:05 AM 32.6494 -83.5431 322° Northwest 439 505 27,200 -2,450 Descending Atlanta Center
Thu 05:07:05 AM 32.7417 -83.6264 323° Northwest 439 505 24,700 -2,450 Descending Atlanta Center
Thu 05:08:05 AM 32.8336 -83.7100 323° Northwest 428 493 22,300 -2,450 Descending Atlanta Center
Thu 05:09:05 AM 32.9236 -83.7889 324° Northwest 419 482 19,800 -2,450 Descending Atlanta Center
Thu 05:10:05 AM 33.0114 -83.8703 322° Northwest 414 476 17,400 -2,350 Descending Atlanta Center
Thu 05:11:05 AM 33.1075 -83.9569 323° Northwest 403 464 15,100 -2,000 Descending Atlanta Center
Thu 05:12:05 AM 33.1911 -84.0339 322° Northwest 386 444 13,400 -1,950 Descending Atlanta Center
Thu 05:13:05 AM 33.2703 -84.1083 322° Northwest 378 435 11,200 -1,200 Descending Atlanta Center
Thu 05:14:05 AM 33.3475 -84.1781 323° Northwest 359 413 11,000 -120 Descending Atlanta Center
Thu 05:14:45 AM 33.4000 -84.2167 328° Northwest 309 356 11,000  Level Atlanta TRACON
Thu 05:15:51 AM 33.4333 -84.3167 292° West 302 348 11,000 -810 Level Atlanta TRACON
Thu 05:16:51 AM 33.4667 -84.4167 292° West 305 351 9,300 -2,050 Descending Atlanta TRACON
Thu 05:17:51 AM 33.5000 -84.5000 296° West 304 350 6,900 -2,389 Descending Atlanta TRACON
Thu 05:18:39 AM 33.5333 -84.5667 301° West 291 335 5,000 -1,889 Descending Atlanta TRACON
Thu 05:19:39 AM 33.5833 -84.6333 312° West 271 312 3,500 -1,000 Descending Atlanta TRACON
Thu 05:20:39 AM 33.6333 -84.6000 29° Northeast 205 236 3,000 -500 Descending Atlanta TRACON

Login

Don't have an account? Register now (free) for customized features, flight alerts, and more!